createdAt,value
2019-06-26T00:00:50.639Z,7.90
2019-06-26T00:03:21.572Z,7.92
2019-06-26T00:05:51.263Z,7.37
2019-06-26T00:08:20.904Z,8.40
2019-06-26T00:10:50.636Z,8.40
2019-06-26T00:13:26.182Z,7.93
2019-06-26T00:15:51.915Z,8.23
2019-06-26T00:18:21.582Z,8.53
2019-06-26T00:20:51.225Z,7.65
2019-06-26T00:23:20.962Z,8.60
2019-06-26T00:25:50.622Z,8.78
2019-06-26T00:28:20.761Z,9.93
2019-06-26T00:30:50.446Z,9.55
2019-06-26T00:33:20.080Z,9.85
2019-06-26T00:35:49.848Z,9.35
2019-06-26T00:38:19.476Z,9.25
2019-06-26T00:40:49.111Z,9.65
2019-06-26T00:43:19.811Z,9.58
2019-06-26T00:45:49.531Z,9.70
2019-06-26T00:48:19.181Z,8.78
2019-06-26T00:50:48.912Z,8.80
2019-06-26T00:53:18.534Z,8.23
2019-06-26T00:55:48.323Z,8.68
2019-06-26T00:58:18.204Z,8.63
2019-06-26T01:00:51.032Z,9.03
2019-06-26T01:03:20.727Z,8.68
2019-06-26T01:05:50.455Z,8.60
2019-06-26T01:08:20.081Z,8.60
2019-06-26T01:10:49.859Z,9.05
2019-06-26T01:13:19.544Z,8.73
2019-06-26T01:15:49.278Z,8.75
2019-06-26T01:18:19.141Z,8.43
2019-06-26T01:20:48.801Z,8.55
2019-06-26T01:23:18.527Z,8.93
2019-06-26T01:25:48.179Z,8.48
2019-06-26T01:28:17.835Z,8.58
2019-06-26T01:30:47.619Z,8.80
2019-06-26T01:33:17.288Z,9.43
2019-06-26T01:35:46.950Z,9.28
2019-06-26T01:38:16.714Z,9.23
2019-06-26T01:40:46.478Z,9.00
2019-06-26T01:43:16.194Z,9.30
2019-06-26T01:45:45.875Z,9.33
2019-06-26T01:48:15.775Z,9.20
2019-06-26T01:50:45.445Z,9.73
2019-06-26T01:53:15.132Z,10.48
2019-06-26T01:55:45.546Z,10.32
2019-06-26T01:58:15.303Z,9.88
2019-06-26T02:00:45.014Z,10.13
2019-06-26T02:03:14.767Z,10.00
2019-06-26T02:05:44.398Z,10.25
2019-06-26T02:08:14.079Z,10.23
2019-06-26T02:10:44.091Z,10.20
2019-06-26T02:13:13.865Z,10.70
2019-06-26T02:15:43.571Z,10.30
2019-06-26T02:18:45.409Z,9.90
2019-06-26T02:21:16.085Z,10.55
2019-06-26T02:23:46.795Z,10.18
2019-06-26T02:26:16.450Z,10.63
2019-06-26T02:28:46.180Z,10.53
2019-06-26T02:31:15.879Z,10.98
2019-06-26T02:33:45.543Z,10.55
2019-06-26T02:36:15.197Z,11.18
2019-06-26T02:38:44.999Z,10.05
2019-06-26T02:41:14.952Z,10.20
2019-06-26T02:43:45.354Z,10.72
2019-06-26T02:46:15.122Z,10.00
2019-06-26T02:48:44.778Z,9.98
2019-06-26T02:51:14.445Z,11.30
2019-06-26T02:53:44.151Z,10.68
2019-06-26T02:56:13.797Z,10.20
2019-06-26T02:58:43.480Z,10.03
2019-06-26T03:01:13.189Z,9.90
2019-06-26T03:03:42.930Z,10.25
2019-06-26T03:06:12.633Z,11.48
2019-06-26T03:08:42.287Z,10.72
2019-06-26T03:11:11.938Z,10.93
2019-06-26T03:13:41.607Z,11.08
2019-06-26T03:16:11.320Z,10.43
2019-06-26T03:18:41.110Z,10.80
2019-06-26T03:21:10.752Z,11.18
2019-06-26T03:23:40.504Z,11.10
2019-06-26T03:26:10.249Z,11.50
2019-06-26T03:28:39.991Z,11.20
2019-06-26T03:31:09.643Z,11.10
2019-06-26T03:33:39.324Z,11.50
2019-06-26T03:36:09.946Z,11.28
2019-06-26T03:38:39.672Z,11.83
2019-06-26T03:41:09.338Z,12.30
2019-06-26T03:43:39.507Z,12.00
2019-06-26T03:46:09.244Z,11.43
2019-06-26T03:48:39.179Z,11.25
2019-06-26T03:51:08.906Z,11.90
2019-06-26T03:53:38.611Z,10.72
2019-06-26T03:56:08.316Z,13.08
2019-06-26T03:58:38.124Z,11.55
2019-06-26T04:01:07.795Z,11.90
2019-06-26T04:03:37.494Z,11.35
2019-06-26T04:06:07.229Z,10.82
2019-06-26T04:08:36.963Z,10.85
2019-06-26T04:11:06.627Z,10.72
2019-06-26T04:13:36.289Z,10.90
2019-06-26T04:16:06.023Z,11.18
2019-06-26T04:18:35.715Z,11.45
2019-06-26T04:21:05.374Z,10.10
2019-06-26T04:23:35.014Z,11.28
2019-06-26T04:26:04.945Z,11.12
2019-06-26T04:28:34.750Z,11.12
2019-06-26T04:31:04.987Z,10.85
2019-06-26T04:33:34.763Z,10.58
2019-06-26T04:36:05.036Z,10.25
2019-06-26T04:38:34.969Z,10.15
2019-06-26T04:41:05.018Z,10.45
2019-06-26T04:43:34.750Z,10.50
2019-06-26T04:46:05.287Z,10.38
2019-06-26T04:48:34.948Z,9.85
2019-06-26T04:51:05.119Z,9.80
2019-06-26T04:53:34.772Z,10.90
2019-06-26T04:56:06.207Z,9.60
2019-06-26T04:58:36.927Z,9.58
2019-06-26T05:01:06.637Z,8.65
2019-06-26T05:03:36.330Z,9.25
2019-06-26T05:06:06.078Z,9.20
2019-06-26T05:08:35.714Z,9.10
2019-06-26T05:11:05.582Z,8.68
2019-06-26T05:13:35.346Z,8.95
2019-06-26T05:16:14.914Z,8.33
2019-06-26T05:18:36.514Z,8.80
2019-06-26T05:21:06.394Z,8.45
2019-06-26T05:23:36.073Z,8.43
2019-06-26T05:26:05.740Z,7.70
2019-06-26T05:28:37.504Z,7.80
2019-06-26T05:31:07.138Z,7.70
2019-06-26T05:33:36.847Z,7.83
2019-06-26T05:36:06.789Z,8.20
2019-06-26T05:38:36.426Z,7.53
2019-06-26T05:41:06.172Z,8.58
2019-06-26T05:43:35.799Z,7.25
2019-06-26T05:46:05.651Z,7.72
2019-06-26T05:48:35.546Z,7.05
2019-06-26T05:51:05.364Z,7.47
2019-06-26T05:53:35.089Z,6.87
2019-06-26T05:56:05.342Z,8.00
2019-06-26T05:58:35.007Z,7.90
2019-06-26T06:01:04.964Z,7.78
2019-06-26T06:03:35.612Z,7.50
2019-06-26T06:06:05.409Z,7.30
2019-06-26T06:08:35.181Z,7.00
2019-06-26T06:11:04.938Z,7.20
2019-06-26T06:13:34.778Z,7.50
2019-06-26T06:16:06.610Z,7.78
2019-06-26T06:18:36.581Z,6.85
2019-06-26T06:21:06.277Z,6.92
2019-06-26T06:23:36.070Z,6.90
2019-06-26T06:26:05.829Z,6.97
2019-06-26T06:28:35.532Z,7.60
2019-06-26T06:31:05.227Z,6.70
2019-06-26T06:33:35.063Z,7.30
2019-06-26T06:36:05.329Z,7.25
2019-06-26T06:38:35.029Z,6.72
2019-06-26T06:41:05.045Z,6.75
2019-06-26T06:43:34.771Z,7.05
2019-06-26T06:46:06.093Z,6.78
2019-06-26T06:48:35.853Z,6.92
2019-06-26T06:51:05.993Z,6.62
2019-06-26T06:53:37.806Z,6.72
2019-06-26T06:56:07.443Z,6.67
2019-06-26T06:58:37.071Z,6.60
2019-06-26T07:01:06.698Z,5.67
2019-06-26T07:03:36.351Z,6.75
2019-06-26T07:06:07.087Z,6.62
2019-06-26T07:08:37.796Z,6.50
2019-06-26T07:11:07.495Z,7.08
2019-06-26T07:13:37.103Z,7.20
2019-06-26T07:16:06.991Z,7.70
2019-06-26T07:18:36.650Z,7.97
2019-06-26T07:21:06.354Z,7.92
2019-06-26T07:23:36.086Z,8.10
2019-06-26T07:26:06.863Z,7.65
2019-06-26T07:28:36.501Z,8.53
2019-06-26T07:31:06.265Z,11.08
2019-06-26T07:33:37.221Z,13.13
2019-06-26T07:36:06.847Z,8.83
2019-06-26T07:38:36.562Z,8.10
2019-06-26T07:41:06.297Z,8.13
2019-06-26T07:43:36.017Z,8.45
2019-06-26T07:46:05.690Z,8.45
2019-06-26T07:48:35.457Z,8.35
2019-06-26T07:51:05.200Z,8.23
2019-06-26T07:53:34.859Z,8.55
2019-06-26T07:56:05.114Z,9.20
2019-06-26T07:58:35.765Z,8.43
2019-06-26T08:01:07.634Z,9.70
2019-06-26T08:03:37.265Z,9.95
2019-06-26T08:06:06.937Z,8.85
2019-06-26T08:08:36.655Z,8.88
2019-06-26T08:11:07.298Z,9.30
2019-06-26T08:13:37.389Z,9.88
2019-06-26T08:16:07.020Z,10.58
2019-06-26T08:18:37.345Z,10.45
2019-06-26T08:21:12.436Z,10.53
2019-06-26T08:23:39.534Z,10.35
2019-06-26T08:26:09.171Z,11.65
2019-06-26T08:28:38.864Z,10.15
2019-06-26T08:31:09.837Z,10.43
2019-06-26T08:33:41.607Z,10.13
2019-06-26T08:36:11.644Z,8.60
2019-06-26T08:38:42.453Z,9.10
2019-06-26T08:41:14.285Z,9.23
2019-06-26T08:43:44.067Z,8.83
2019-06-26T08:46:13.759Z,7.83
2019-06-26T08:48:43.517Z,7.95
2019-06-26T08:51:13.485Z,7.78
2019-06-26T08:53:46.284Z,7.12
2019-06-26T08:56:16.926Z,8.00
2019-06-26T08:58:47.744Z,7.37
2019-06-26T09:01:18.512Z,7.28
2019-06-26T09:03:48.225Z,8.18
2019-06-26T09:06:17.977Z,7.53
2019-06-26T09:08:47.877Z,7.17
2019-06-26T09:11:17.482Z,7.37
2019-06-26T09:13:47.108Z,8.08
2019-06-26T09:16:16.737Z,7.62
2019-06-26T09:18:49.397Z,7.28
2019-06-26T09:21:19.185Z,7.80
2019-06-26T09:23:48.804Z,7.97
2019-06-26T09:26:18.443Z,7.42
2019-06-26T09:28:48.099Z,7.83
2019-06-26T09:31:18.129Z,6.87
2019-06-26T09:33:48.082Z,7.83
2019-06-26T09:36:17.726Z,8.13
2019-06-26T09:38:47.491Z,7.80
2019-06-26T09:41:19.305Z,7.40
2019-06-26T09:43:49.167Z,8.20
2019-06-26T09:46:18.840Z,9.93
2019-06-26T09:48:53.026Z,11.63
2019-06-26T09:51:20.068Z,11.27
2019-06-26T09:53:50.321Z,11.78
2019-06-26T09:56:20.207Z,11.77
2019-06-26T09:58:50.080Z,12.75
2019-06-26T10:01:19.794Z,11.53
2019-06-26T10:03:53.673Z,12.82
2019-06-26T10:06:24.315Z,14.15
2019-06-26T10:08:54.794Z,11.08
2019-06-26T10:11:24.912Z,11.22
2019-06-26T10:13:54.679Z,13.13
2019-06-26T10:16:24.320Z,13.08
2019-06-26T10:19:09.073Z,11.85
2019-06-26T10:21:26.537Z,13.60
2019-06-26T10:23:56.234Z,14.13
2019-06-26T10:26:26.027Z,13.32
2019-06-26T10:28:56.112Z,12.35
2019-06-26T10:31:25.834Z,11.57
2019-06-26T10:33:56.490Z,12.82
2019-06-26T10:36:26.206Z,11.22
2019-06-26T10:38:56.014Z,9.88
2019-06-26T10:41:25.787Z,10.30
2019-06-26T10:43:55.648Z,11.60
2019-06-26T10:46:25.338Z,9.25
2019-06-26T10:48:55.045Z,10.75
2019-06-26T10:51:24.801Z,11.60
2019-06-26T10:53:54.492Z,10.85
2019-06-26T10:56:24.191Z,10.88
2019-06-26T10:58:53.930Z,10.75
2019-06-26T11:01:23.645Z,8.68
2019-06-26T11:03:53.319Z,9.55
2019-06-26T11:06:23.091Z,8.97
2019-06-26T11:08:52.906Z,8.75
2019-06-26T11:11:22.706Z,8.55
2019-06-26T11:13:52.462Z,7.58
2019-06-26T11:16:22.242Z,8.03
2019-06-26T11:18:52.060Z,6.87
2019-06-26T11:21:21.793Z,7.00
2019-06-26T11:23:52.603Z,7.20
2019-06-26T11:26:23.356Z,6.78
2019-06-26T11:28:53.163Z,6.90
2019-06-26T11:31:23.012Z,6.03
2019-06-26T11:33:52.783Z,6.42
2019-06-26T11:36:22.435Z,5.45
2019-06-26T11:38:52.142Z,5.35
2019-06-26T11:41:21.903Z,5.25
2019-06-26T11:43:51.615Z,4.90
2019-06-26T11:46:21.259Z,4.72
2019-06-26T11:48:50.897Z,4.83
2019-06-26T11:51:20.729Z,5.10
2019-06-26T11:53:50.507Z,4.17
2019-06-26T11:56:20.374Z,4.90
2019-06-26T11:58:50.132Z,4.20
2019-06-26T12:01:19.771Z,4.58
2019-06-26T12:03:49.407Z,4.20
2019-06-26T12:06:19.466Z,4.20
2019-06-26T12:08:49.268Z,4.20
2019-06-26T12:11:18.946Z,4.50
2019-06-26T12:13:48.745Z,4.00
2019-06-26T12:16:18.682Z,3.95
2019-06-26T12:18:48.392Z,4.45
2019-06-26T12:21:19.125Z,3.87
2019-06-26T12:23:49.850Z,4.30
2019-06-26T12:26:19.528Z,4.08
2019-06-26T12:28:50.262Z,3.70
2019-06-26T12:31:19.875Z,4.33
2019-06-26T12:33:50.638Z,4.53
2019-06-26T12:36:20.353Z,3.90
2019-06-26T12:38:50.032Z,4.10
2019-06-26T12:41:19.806Z,4.35
2019-06-26T12:43:49.531Z,4.28
2019-06-26T12:46:20.154Z,4.12
2019-06-26T12:48:49.962Z,4.28
2019-06-26T12:51:19.657Z,4.20
2019-06-26T12:53:49.305Z,3.52
2019-06-26T12:56:18.926Z,3.70
2019-06-26T12:58:48.664Z,3.95
2019-06-26T13:01:19.460Z,4.00
2019-06-26T13:03:49.176Z,3.65
2019-06-26T13:06:18.882Z,3.80
2019-06-26T13:08:49.648Z,3.50
2019-06-26T13:11:19.264Z,3.47
2019-06-26T13:14:02.123Z,3.98
2019-06-26T13:16:20.315Z,4.37
2019-06-26T13:18:50.062Z,3.90
2019-06-26T13:21:19.722Z,3.25
2019-06-26T13:23:49.557Z,3.62
2019-06-26T13:26:20.297Z,4.00
2019-06-26T13:28:50.353Z,3.33
2019-06-26T13:31:20.082Z,4.00
2019-06-26T13:33:49.711Z,3.58
2019-06-26T13:36:19.376Z,4.17
2019-06-26T13:38:49.104Z,3.67
2019-06-26T13:41:18.825Z,4.40
2019-06-26T13:43:49.574Z,4.05
2019-06-26T13:46:19.300Z,3.95
2019-06-26T13:48:48.922Z,4.42
2019-06-26T13:51:21.513Z,4.67
2019-06-26T13:53:49.971Z,4.17
2019-06-26T13:56:19.717Z,4.37
2019-06-26T13:58:50.485Z,4.58
2019-06-26T14:01:23.056Z,4.53
2019-06-26T14:03:51.599Z,4.17
2019-06-26T14:06:21.301Z,3.85
2019-06-26T14:08:51.903Z,4.28
2019-06-26T14:11:22.547Z,3.47
2019-06-26T14:13:53.606Z,3.47
2019-06-26T14:16:24.385Z,3.58
2019-06-26T14:18:55.230Z,3.83
2019-06-26T14:21:26.262Z,3.40
2019-06-26T14:23:56.160Z,3.15
2019-06-26T14:26:25.870Z,3.72
2019-06-26T14:28:55.963Z,3.62
2019-06-26T14:31:26.684Z,3.58
2019-06-26T14:33:56.456Z,3.10
2019-06-26T14:36:27.659Z,3.47
2019-06-26T14:38:57.319Z,2.65
2019-06-26T14:41:26.964Z,2.77
2019-06-26T14:43:56.595Z,3.35
2019-06-26T14:46:26.225Z,2.98
2019-06-26T14:48:55.928Z,2.70
2019-06-26T14:51:41.125Z,2.62
2019-06-26T14:53:57.970Z,2.47
2019-06-26T14:56:36.850Z,2.30
2019-06-26T14:59:06.515Z,3.75
2019-06-26T15:01:37.276Z,2.40
2019-06-26T15:04:07.154Z,2.22
2019-06-26T15:06:36.929Z,2.20
2019-06-26T15:09:07.219Z,3.77
2019-06-26T15:11:38.111Z,2.25
2019-06-26T15:14:07.982Z,2.50
2019-06-26T15:16:38.210Z,2.30
2019-06-26T15:19:08.022Z,2.75
2019-06-26T15:21:37.964Z,2.58
2019-06-26T15:24:07.686Z,2.20
2019-06-26T15:26:37.342Z,2.22
2019-06-26T15:29:08.054Z,2.40
2019-06-26T15:31:38.188Z,2.22
2019-06-26T15:34:07.819Z,2.15
2019-06-26T15:36:37.454Z,2.30
2019-06-26T15:39:07.900Z,2.08
2019-06-26T15:41:37.558Z,2.30
2019-06-26T15:44:07.440Z,3.37
2019-06-26T15:46:37.066Z,2.77
2019-06-26T15:49:07.009Z,3.27
2019-06-26T15:51:36.754Z,3.90
2019-06-26T15:54:06.500Z,2.92
2019-06-26T15:56:37.131Z,3.40
2019-06-26T15:59:06.806Z,3.83
2019-06-26T16:01:36.460Z,3.45
2019-06-26T16:04:07.254Z,3.75
2019-06-26T16:06:36.966Z,3.80
2019-06-26T16:09:06.969Z,4.00
2019-06-26T16:11:37.641Z,3.90
2019-06-26T16:14:07.297Z,4.45
2019-06-26T16:16:38.782Z,4.92
2019-06-26T16:19:12.310Z,3.87
2019-06-26T16:21:41.939Z,4.03
2019-06-26T16:24:12.684Z,4.33
2019-06-26T16:26:42.333Z,4.50
2019-06-26T16:29:12.115Z,4.70
2019-06-26T16:31:41.868Z,5.00
2019-06-26T16:34:12.543Z,4.35
2019-06-26T16:36:43.241Z,4.95
2019-06-26T16:39:12.924Z,4.53
2019-06-26T16:41:43.567Z,5.10
2019-06-26T16:44:14.347Z,5.25
2019-06-26T16:46:44.254Z,4.92
2019-06-26T16:49:14.147Z,4.70
2019-06-26T16:51:43.889Z,5.28
2019-06-26T16:54:14.082Z,4.87
2019-06-26T16:56:43.803Z,4.67
2019-06-26T16:59:14.634Z,5.15
2019-06-26T17:01:44.440Z,5.35
2019-06-26T17:04:14.289Z,4.37
2019-06-26T17:06:43.980Z,4.42
2019-06-26T17:09:13.680Z,4.65
2019-06-26T17:11:43.386Z,4.10
2019-06-26T17:14:13.140Z,3.80
2019-06-26T17:16:43.983Z,4.97
2019-06-26T17:19:14.135Z,4.40
2019-06-26T17:21:44.323Z,4.58
2019-06-26T17:24:14.212Z,4.17
2019-06-26T17:26:44.100Z,4.25
2019-06-26T17:29:13.881Z,3.87
2019-06-26T17:31:43.579Z,4.17
2019-06-26T17:34:13.340Z,3.08
2019-06-26T17:36:43.146Z,2.85
2019-06-26T17:39:12.941Z,3.22
2019-06-26T17:41:44.127Z,3.33
2019-06-26T17:44:14.162Z,2.83
2019-06-26T17:46:44.009Z,2.92
2019-06-26T17:49:13.756Z,2.87
2019-06-26T17:51:43.567Z,2.60
2019-06-26T17:54:13.411Z,3.30
2019-06-26T17:56:43.203Z,2.50
2019-06-26T17:59:13.132Z,2.00
2019-06-26T18:01:42.829Z,2.35
2019-06-26T18:04:12.517Z,2.35
2019-06-26T18:06:42.231Z,2.40
2019-06-26T18:09:15.020Z,2.27
2019-06-26T18:11:44.740Z,2.40
2019-06-26T18:14:14.568Z,2.45
2019-06-26T18:16:44.283Z,2.25
2019-06-26T18:19:14.088Z,2.70
2019-06-26T18:21:44.146Z,2.22
2019-06-26T18:24:13.895Z,2.37
2019-06-26T18:26:43.650Z,2.67
2019-06-26T18:29:13.409Z,2.80
2019-06-26T18:31:43.116Z,2.42
2019-06-26T18:34:12.832Z,2.10
2019-06-26T18:36:42.526Z,2.52
2019-06-26T18:39:12.327Z,3.02
2019-06-26T18:41:42.295Z,2.20
2019-06-26T18:44:12.279Z,2.72
2019-06-26T18:46:42.346Z,2.85
2019-06-26T18:49:12.058Z,2.67
2019-06-26T18:51:41.986Z,2.95
2019-06-26T18:54:11.839Z,3.12
2019-06-26T18:56:41.629Z,3.33
2019-06-26T18:59:11.343Z,3.05
2019-06-26T19:01:41.118Z,3.52
2019-06-26T19:04:11.854Z,3.20
2019-06-26T19:06:41.523Z,3.58
2019-06-26T19:09:11.330Z,3.60
2019-06-26T19:11:41.063Z,3.70
2019-06-26T19:14:10.935Z,3.47
2019-06-26T19:16:40.581Z,4.30
2019-06-26T19:19:12.306Z,3.67
2019-06-26T19:21:41.880Z,3.72
2019-06-26T19:24:11.638Z,3.95
2019-06-26T19:26:41.479Z,4.08
2019-06-26T19:29:11.247Z,3.62
2019-06-26T19:31:41.839Z,3.72
2019-06-26T19:34:11.559Z,3.33
2019-06-26T19:36:49.953Z,3.60
2019-06-26T19:39:13.248Z,3.10
2019-06-26T19:41:42.988Z,3.40
2019-06-26T19:44:12.797Z,3.13
2019-06-26T19:46:42.555Z,3.67
2019-06-26T19:49:12.468Z,2.58
2019-06-26T19:51:42.120Z,3.33
2019-06-26T19:54:26.139Z,2.58
2019-06-26T19:56:43.432Z,2.62
2019-06-26T19:59:13.233Z,3.30
2019-06-26T20:01:42.904Z,2.50
2019-06-26T20:04:12.836Z,2.42
2019-06-26T20:06:42.516Z,2.80
2019-06-26T20:09:12.663Z,2.08
2019-06-26T20:11:42.438Z,1.90
2019-06-26T20:14:12.281Z,2.25
2019-06-26T20:16:42.292Z,2.60
2019-06-26T20:19:11.980Z,2.47
2019-06-26T20:21:41.624Z,1.87
2019-06-26T20:24:11.369Z,3.25
2019-06-26T20:26:41.095Z,2.55
2019-06-26T20:29:10.855Z,2.12
2019-06-26T20:31:40.639Z,2.60
2019-06-26T20:34:10.327Z,2.35
2019-06-26T20:36:40.031Z,2.40
2019-06-26T20:39:12.975Z,2.25
2019-06-26T20:41:42.628Z,1.90
2019-06-26T20:44:12.302Z,2.63
2019-06-26T20:46:42.004Z,2.10
2019-06-26T20:49:11.762Z,2.27
2019-06-26T20:51:41.520Z,2.05
2019-06-26T20:54:11.178Z,1.92
2019-06-26T20:56:40.894Z,2.52
2019-06-26T20:59:10.627Z,1.97
2019-06-26T21:01:40.434Z,2.40
2019-06-26T21:04:10.171Z,2.05
2019-06-26T21:06:39.804Z,1.90
2019-06-26T21:09:09.624Z,2.60
2019-06-26T21:11:39.272Z,3.55
2019-06-26T21:14:08.944Z,2.10
2019-06-26T21:16:38.729Z,1.80
2019-06-26T21:19:08.403Z,2.30
2019-06-26T21:21:38.175Z,2.35
2019-06-26T21:24:10.892Z,2.67
2019-06-26T21:26:40.697Z,2.22
2019-06-26T21:29:10.553Z,2.43
2019-06-26T21:31:40.319Z,2.40
2019-06-26T21:34:10.138Z,2.57
2019-06-26T21:36:39.915Z,3.00
2019-06-26T21:39:09.742Z,2.42
2019-06-26T21:41:39.571Z,2.58
2019-06-26T21:44:09.379Z,2.83
2019-06-26T21:46:39.258Z,2.33
2019-06-26T21:49:10.380Z,2.37
2019-06-26T21:51:40.253Z,2.35
2019-06-26T21:54:11.110Z,2.47
2019-06-26T21:56:58.739Z,2.20
2019-06-26T21:59:46.203Z,1.95
2019-06-26T22:02:33.982Z,3.58
2019-06-26T22:05:08.922Z,2.85
2019-06-26T22:07:46.353Z,2.20
2019-06-26T22:10:17.854Z,2.02
2019-06-26T22:12:47.895Z,2.37
2019-06-26T22:15:18.640Z,2.23
2019-06-26T22:17:48.344Z,2.30
2019-06-26T22:20:18.906Z,2.08
2019-06-26T22:22:48.557Z,2.22
2019-06-26T22:25:18.386Z,1.90
2019-06-26T22:27:48.274Z,2.45
2019-06-26T22:30:17.900Z,2.60
2019-06-26T22:32:47.644Z,2.10
2019-06-26T22:35:18.046Z,1.80
2019-06-26T22:37:47.803Z,1.70
2019-06-26T22:40:18.076Z,2.22
2019-06-26T22:42:47.786Z,2.40
2019-06-26T22:45:17.663Z,2.27
2019-06-26T22:47:47.443Z,1.98
2019-06-26T22:50:18.033Z,2.55
2019-06-26T22:52:47.798Z,2.58
2019-06-26T22:55:17.634Z,2.20
2019-06-26T22:57:47.603Z,2.37
2019-06-26T23:00:18.798Z,2.40
2019-06-26T23:02:48.563Z,2.58
2019-06-26T23:05:18.264Z,2.15
2019-06-26T23:07:47.944Z,2.30
2019-06-26T23:10:18.825Z,1.98
2019-06-26T23:12:48.559Z,2.15
2019-06-26T23:15:18.838Z,2.00
2019-06-26T23:17:48.570Z,2.55
2019-06-26T23:20:18.484Z,1.95
2019-06-26T23:22:48.147Z,2.30
2019-06-26T23:25:17.942Z,1.98
2019-06-26T23:27:48.630Z,2.70
2019-06-26T23:30:18.940Z,2.22
2019-06-26T23:32:48.802Z,2.70
2019-06-26T23:35:19.116Z,2.00
2019-06-26T23:37:48.853Z,2.55
2019-06-26T23:40:18.867Z,2.20
2019-06-26T23:42:48.518Z,2.25
2019-06-26T23:45:18.632Z,2.25
2019-06-26T23:47:49.234Z,2.35
2019-06-26T23:50:19.167Z,3.05
2019-06-26T23:52:48.815Z,2.22
2019-06-26T23:55:18.450Z,2.50
2019-06-26T23:57:58.453Z,3.62
